Time;durP1;ratioP1;P1;durP2;ratioP2;P2;SDS_P1;SDS_P2;PMS_P1;PMS_P2;Temp;Humidity;BMP_temperature;BMP_pressure;BME280_temperature;BME280_humidity;BME280_pressure;Samples;Min_cycle;Max_cycle;Signal;HPM_P1;HPM_P2
2023/07/23 00:02:17;;;;;;;17.48;5.97;;;;;;;27.49;52.30;95258.00;4951852;28;20039;-85
2023/07/23 00:04:42;;;;;;;18.85;6.22;;;;;;;27.32;52.49;95241.53;4952781;28;20043;-85
2023/07/23 00:07:07;;;;;;;15.27;5.35;;;;;;;27.36;52.53;95240.44;4935184;28;20082;-85
2023/07/23 00:09:33;;;;;;;22.30;6.10;;;;;;;26.98;52.67;95194.66;4948475;29;20423;-86
2023/07/23 00:11:58;;;;;;;15.65;5.63;;;;;;;27.03;52.51;95183.41;4938533;29;20136;-85
2023/07/23 00:14:24;;;;;;;17.55;4.88;;;;;;;26.86;52.86;95215.50;4952101;29;20061;-85
2023/07/23 00:16:50;;;;;;;18.38;6.40;;;;;;;26.73;53.32;95221.63;4934226;28;20047;-85
2023/07/23 00:19:19;;;;;;;22.75;6.35;;;;;;;26.76;54.30;95267.13;4952276;29;20073;-85
2023/07/23 00:21:48;;;;;;;24.95;6.60;;;;;;;26.27;54.08;95192.06;4935554;28;20039;-85
2023/07/23 00:24:15;;;;;;;22.27;5.82;;;;;;;26.42;54.81;95247.34;4952548;29;20046;-85
2023/07/23 00:26:40;;;;;;;20.05;5.50;;;;;;;26.31;55.00;95239.09;4935097;28;20035;-85
2023/07/23 00:29:06;;;;;;;27.63;6.20;;;;;;;26.56;54.65;95250.22;4934950;29;20088;-85
2023/07/23 00:31:32;;;;;;;25.60;5.55;;;;;;;26.70;54.36;95255.03;4985600;28;20410;-85
2023/07/23 00:33:57;;;;;;;20.95;6.28;;;;;;;26.73;54.54;95270.59;5031657;28;20069;-85
2023/07/23 00:36:22;;;;;;;18.00;6.03;;;;;;;26.77;54.67;95291.25;4950615;28;20469;-85
2023/07/23 00:38:49;;;;;;;19.98;5.40;;;;;;;26.42;54.60;95244.63;4933978;29;20039;-85
2023/07/23 00:41:14;;;;;;;30.70;6.03;;;;;;;26.66;54.62;95287.63;4952227;29;20101;-86
2023/07/23 00:43:40;;;;;;;21.20;6.78;;;;;;;26.37;55.16;95247.69;4952335;28;20035;-85
2023/07/23 00:46:05;;;;;;;25.50;6.15;;;;;;;26.12;55.02;95220.22;4929792;29;20024;-85
2023/07/23 00:48:31;;;;;;;19.45;6.18;;;;;;;25.70;55.18;95149.88;4937549;29;20023;-85
2023/07/23 00:50:57;;;;;;;26.83;7.05;;;;;;;26.54;55.27;95279.75;4951351;28;20058;-85
2023/07/23 00:53:25;;;;;;;21.90;6.25;;;;;;;26.49;54.87;95272.69;4934848;28;20032;-85
2023/07/23 00:55:51;;;;;;;22.92;6.43;;;;;;;26.43;55.06;95273.41;4951699;29;20466;-85
2023/07/23 00:58:17;;;;;;;24.67;5.82;;;;;;;26.35;54.98;95252.72;4962256;28;20027;-85
2023/07/23 01:00:42;;;;;;;25.00;6.43;;;;;;;26.72;54.73;95297.00;4946104;28;20389;-85
2023/07/23 01:03:08;;;;;;;19.75;6.07;;;;;;;26.68;54.45;95307.09;4934856;29;20506;-85
2023/07/23 01:05:34;;;;;;;21.13;6.78;;;;;;;26.42;54.92;95263.69;4934753;28;20402;-85
2023/07/23 01:08:00;;;;;;;25.13;5.43;;;;;;;25.83;54.21;95172.13;4951410;29;20409;-85
2023/07/23 01:10:26;;;;;;;24.30;6.40;;;;;;;26.62;54.28;95295.00;4933665;28;20058;-85
2023/07/23 01:12:52;;;;;;;23.17;6.60;;;;;;;26.41;53.80;95243.06;4933851;29;20031;-85
2023/07/23 01:15:18;;;;;;;20.30;5.90;;;;;;;25.59;54.17;95122.59;4951168;28;20039;-85
2023/07/23 01:17:46;;;;;;;17.70;6.28;;;;;;;26.36;53.83;95238.75;4951471;29;20039;-85
2023/07/23 01:20:12;;;;;;;18.77;5.50;;;;;;;26.46;54.07;95240.03;4934502;28;20069;-85
2023/07/23 01:22:38;;;;;;;13.73;5.20;;;;;;;26.74;54.24;95316.47;4933972;28;20034;-85
2023/07/23 01:25:04;;;;;;;21.55;6.20;;;;;;;26.75;54.74;95323.47;4966418;28;20131;-85
2023/07/23 01:27:30;;;;;;;19.33;6.53;;;;;;;26.60;54.89;95321.75;4934126;29;20046;-85
2023/07/23 01:29:56;;;;;;;20.15;5.90;;;;;;;26.31;54.63;95279.09;4950428;29;20035;-85
2023/07/23 01:32:21;;;;;;;18.30;5.80;;;;;;;26.65;54.61;95335.03;4927127;29;20047;-85
2023/07/23 01:34:47;;;;;;;26.42;5.97;;;;;;;26.24;55.16;95292.59;4940279;29;20035;-85
2023/07/23 01:37:14;;;;;;;14.55;6.03;;;;;;;26.55;54.96;95348.53;4934256;28;20471;-85
2023/07/23 01:39:40;;;;;;;25.05;6.00;;;;;;;26.07;56.14;95331.97;4950229;28;20169;-85
2023/07/23 01:42:10;;;;;;;21.77;6.40;;;;;;;26.13;56.38;95344.09;4951011;29;20480;-85
2023/07/23 01:44:35;;;;;;;26.05;6.85;;;;;;;25.84;55.67;95306.81;4933069;28;20093;-85
2023/07/23 01:47:00;;;;;;;21.90;5.88;;;;;;;26.19;55.65;95364.34;4933447;29;20417;-85
2023/07/23 01:49:26;;;;;;;22.45;5.72;;;;;;;25.21;55.57;95226.75;4951006;29;20031;-84
2023/07/23 01:51:51;;;;;;;18.63;6.82;;;;;;;25.87;56.31;95358.47;4950597;29;20039;-85
2023/07/23 01:54:17;;;;;;;20.90;6.07;;;;;;;25.89;56.26;95368.97;4934004;28;20510;-84
2023/07/23 01:56:42;;;;;;;19.63;6.30;;;;;;;25.99;55.79;95362.91;4934401;28;20036;-85
2023/07/23 01:59:08;;;;;;;28.00;6.90;;;;;;;25.92;56.39;95393.50;4954108;29;20066;-83
2023/07/23 02:01:34;;;;;;;17.85;6.20;;;;;;;25.37;56.95;95335.97;4938820;29;20035;-83
2023/07/23 02:03:59;;;;;;;21.13;6.28;;;;;;;25.37;57.69;95371.28;4955855;29;20031;-83
2023/07/23 02:06:25;;;;;;;18.00;6.15;;;;;;;25.08;58.07;95371.16;4939291;29;20132;-83
2023/07/23 02:08:50;;;;;;;22.45;5.93;;;;;;;24.82;57.61;95328.41;4957316;29;20784;-83
2023/07/23 02:11:16;;;;;;;27.20;6.43;;;;;;;24.81;57.86;95381.09;4939197;28;20442;-83
2023/07/23 02:13:41;;;;;;;17.73;5.80;;;;;;;24.31;58.27;95347.59;4940603;28;20035;-83
2023/07/23 02:16:14;;;;;;;26.58;6.43;;;;;;;24.56;58.73;95386.81;4939765;28;20027;-83
2023/07/23 02:18:40;;;;;;;18.77;5.80;;;;;;;24.44;59.81;95408.66;4956731;28;20039;-83
2023/07/23 02:21:05;;;;;;;22.83;5.93;;;;;;;24.55;59.54;95420.50;4956762;28;20042;-83
2023/07/23 02:23:30;;;;;;;21.23;6.68;;;;;;;24.10;60.27;95368.81;4925988;28;20505;-83
2023/07/23 02:25:56;;;;;;;22.33;7.05;;;;;;;23.47;60.45;95309.34;4952573;29;20035;-83
2023/07/23 02:28:21;;;;;;;31.20;6.55;;;;;;;24.14;61.06;95429.25;4956910;28;20031;-83
2023/07/23 02:30:55;;;;;;;23.00;6.93;;;;;;;23.33;61.73;95327.97;4938991;29;20039;-84
2023/07/23 02:33:21;;;;;;;26.25;6.95;;;;;;;23.77;62.04;95390.88;4956768;29;20035;-83
2023/07/23 02:35:46;;;;;;;17.95;7.07;;;;;;;23.87;62.32;95411.25;4957497;28;20097;-83
2023/07/23 02:38:12;;;;;;;23.75;7.18;;;;;;;23.44;62.06;95335.19;4971143;28;20110;-83
2023/07/23 02:40:37;;;;;;;17.55;7.57;;;;;;;23.80;62.18;95409.16;4965301;28;20099;-83
2023/07/23 02:43:03;;;;;;;20.55;7.43;;;;;;;24.00;61.62;95413.47;4927009;29;20515;-83
2023/07/23 02:45:29;;;;;;;27.92;8.30;;;;;;;23.79;61.61;95407.59;4956655;29;20082;-83
2023/07/23 02:47:54;;;;;;;33.95;7.57;;;;;;;23.45;61.95;95338.69;4938939;29;20050;-83
2023/07/23 02:50:20;;;;;;;23.33;8.52;;;;;;;23.99;62.26;95440.91;4938815;29;20023;-83
2023/07/23 02:52:45;;;;;;;26.42;7.80;;;;;;;24.01;62.05;95419.69;4956235;29;20122;-83
2023/07/23 02:55:11;;;;;;;24.25;8.38;;;;;;;23.95;61.39;95383.19;4939992;29;20061;-83
2023/07/23 02:57:37;;;;;;;19.98;8.70;;;;;;;24.14;61.70;95424.63;4942552;29;20035;-83
2023/07/23 03:00:03;;;;;;;30.40;8.50;;;;;;;23.72;62.57;95377.63;4942368;29;20097;-83
2023/07/23 03:02:30;;;;;;;30.58;9.35;;;;;;;24.08;62.76;95438.81;4959405;28;20088;-83
2023/07/23 03:04:55;;;;;;;21.98;10.77;;;;;;;23.82;64.05;95461.03;4942149;28;20122;-83
2023/07/23 03:07:21;;;;;;;21.63;9.05;;;;;;;23.77;63.71;95415.25;4974328;28;20506;-83
2023/07/23 03:09:46;;;;;;;24.70;11.07;;;;;;;23.67;63.96;95389.50;4942477;28;20043;-83
2023/07/23 03:12:12;;;;;;;21.30;10.55;;;;;;;24.01;63.96;95444.84;4959569;29;20062;-82
2023/07/23 03:14:37;;;;;;;21.42;11.18;;;;;;;23.58;65.15;95415.97;4959740;29;20720;-83
2023/07/23 03:17:03;;;;;;;22.58;12.02;;;;;;;23.73;65.39;95447.66;4946791;28;20047;-83
2023/07/23 03:19:28;;;;;;;27.00;12.88;;;;;;;23.27;65.15;95357.19;5007080;28;20070;-83
2023/07/23 03:21:54;;;;;;;20.40;12.32;;;;;;;23.79;65.29;95440.06;4988418;28;20074;-83
2023/07/23 03:24:19;;;;;;;27.75;12.35;;;;;;;23.94;64.97;95443.91;4942463;29;20035;-83
2023/07/23 03:26:45;;;;;;;25.65;12.50;;;;;;;23.80;65.10;95418.03;4958122;28;20036;-83
2023/07/23 03:29:10;;;;;;;22.83;12.43;;;;;;;23.86;64.97;95429.41;4942287;29;20042;-83
2023/07/23 03:31:36;;;;;;;23.13;11.93;;;;;;;23.85;64.71;95406.16;4941888;28;20027;-83
2023/07/23 03:34:01;;;;;;;20.30;12.70;;;;;;;23.93;64.86;95432.28;4942171;28;20525;-83
2023/07/23 03:36:27;;;;;;;21.27;12.15;;;;;;;23.96;64.54;95423.44;4959421;29;20035;-83
2023/07/23 03:38:52;;;;;;;22.10;11.05;;;;;;;23.98;64.82;95442.06;4959459;29;20053;-83
2023/07/23 03:41:18;;;;;;;23.80;11.45;;;;;;;23.67;65.80;95430.13;4941835;29;20112;-83
2023/07/23 03:43:44;;;;;;;27.88;11.45;;;;;;;23.90;65.09;95434.91;4942463;29;20103;-82
2023/07/23 03:46:09;;;;;;;26.90;11.95;;;;;;;23.32;66.00;95415.69;4945721;28;20040;-82
2023/07/23 03:48:35;;;;;;;17.10;11.75;;;;;;;23.18;66.21;95380.16;4930034;28;20028;-82
2023/07/23 03:51:00;;;;;;;29.08;12.45;;;;;;;23.69;65.33;95414.31;4960211;28;20050;-83
2023/07/23 03:53:26;;;;;;;26.92;12.45;;;;;;;23.68;65.64;95466.09;4960201;29;20035;-82
2023/07/23 03:55:51;;;;;;;29.95;11.93;;;;;;;23.63;66.13;95459.03;4957223;28;20039;-83
2023/07/23 03:58:17;;;;;;;20.02;11.95;;;;;;;22.61;65.52;95282.13;4934404;28;20055;-83
2023/07/23 04:00:44;;;;;;;25.83;12.80;;;;;;;23.58;64.97;95407.06;4942346;28;20454;-83
2023/07/23 04:03:09;;;;;;;22.08;12.27;;;;;;;23.95;64.12;95440.84;4965434;28;20846;-82
2023/07/23 04:05:34;;;;;;;26.60;13.13;;;;;;;24.10;63.88;95459.00;4959886;28;20039;-83
2023/07/23 04:08:02;;;;;;;30.20;12.25;;;;;;;23.96;63.85;95439.69;4958775;28;20042;-83
2023/07/23 04:10:27;;;;;;;26.90;12.07;;;;;;;23.44;63.81;95373.06;4941732;28;20042;-83
2023/07/23 04:12:53;;;;;;;21.10;12.68;;;;;;;24.12;63.37;95454.00;4940584;29;20040;-83
2023/07/23 04:15:18;;;;;;;19.67;12.57;;;;;;;23.96;63.39;95469.47;4940416;29;20055;-83
2023/07/23 04:17:44;;;;;;;27.98;13.68;;;;;;;23.97;63.20;95445.88;4940780;28;20157;-83
2023/07/23 04:20:10;;;;;;;24.50;12.25;;;;;;;23.62;63.49;95403.31;4958014;29;20027;-83
2023/07/23 04:22:35;;;;;;;26.50;13.35;;;;;;;24.12;62.55;95458.63;4941501;28;20034;-83
2023/07/23 04:25:02;;;;;;;24.65;13.70;;;;;;;23.18;63.48;95345.00;4941678;29;20080;-83
2023/07/23 04:27:27;;;;;;;19.02;13.77;;;;;;;23.57;63.50;95395.47;4969995;28;20454;-83
2023/07/23 04:29:53;;;;;;;26.63;13.65;;;;;;;23.73;63.49;95420.59;4940237;29;20054;-83
2023/07/23 04:32:19;;;;;;;22.67;13.73;;;;;;;23.36;63.52;95365.13;4959149;29;20042;-83
2023/07/23 04:34:45;;;;;;;23.15;13.35;;;;;;;23.70;63.79;95415.88;4931431;29;20038;-83
2023/07/23 04:37:11;;;;;;;26.33;14.50;;;;;;;23.56;63.32;95404.72;4949942;29;20039;-83
2023/07/23 04:39:37;;;;;;;26.38;15.07;;;;;;;24.03;63.48;95452.63;4974120;28;20097;-83
2023/07/23 04:42:03;;;;;;;26.85;14.65;;;;;;;24.01;63.40;95455.69;4958937;29;20031;-84
2023/07/23 04:44:29;;;;;;;20.58;14.50;;;;;;;23.96;62.84;95436.19;4941462;29;20050;-83
2023/07/23 04:46:54;;;;;;;31.30;15.55;;;;;;;23.97;62.94;95424.22;4921967;29;20496;-83
2023/07/23 04:49:19;;;;;;;17.33;14.60;;;;;;;24.29;62.43;95473.75;4955889;28;20042;-83
2023/07/23 04:51:45;;;;;;;32.78;16.38;;;;;;;23.92;62.28;95405.53;4944549;28;20035;-83
2023/07/23 04:54:10;;;;;;;25.02;16.45;;;;;;;23.87;62.63;95422.84;4941606;29;20066;-83
2023/07/23 04:56:37;;;;;;;22.13;14.98;;;;;;;24.24;62.54;95491.06;4940851;29;20140;-83
2023/07/23 04:59:03;;;;;;;20.13;15.57;;;;;;;24.16;62.17;95454.09;4956429;29;20035;-83
2023/07/23 05:01:28;;;;;;;24.65;16.35;;;;;;;23.77;61.73;95393.59;4940570;28;20045;-83
2023/07/23 05:03:53;;;;;;;25.85;16.35;;;;;;;23.92;61.85;95397.41;4958454;29;20070;-83
2023/07/23 05:06:19;;;;;;;22.02;14.82;;;;;;;24.16;61.10;95438.63;4932720;29;20043;-83
2023/07/23 05:08:44;;;;;;;27.85;15.77;;;;;;;23.68;60.77;95365.91;4929759;28;20031;-84
2023/07/23 05:11:10;;;;;;;23.40;14.75;;;;;;;24.42;61.07;95472.47;4966249;28;20047;-83
2023/07/23 05:13:36;;;;;;;16.30;13.20;;;;;;;23.75;61.17;95385.81;4940172;28;20039;-83
2023/07/23 05:16:02;;;;;;;25.60;15.35;;;;;;;24.30;61.26;95434.66;4945984;28;20573;-83
2023/07/23 05:18:29;;;;;;;19.98;13.82;;;;;;;24.04;60.37;95424.38;4950080;28;20047;-83
2023/07/23 05:20:55;;;;;;;29.05;14.90;;;;;;;24.45;60.80;95467.16;4940203;28;20126;-83
2023/07/23 05:23:22;;;;;;;21.38;15.20;;;;;;;24.27;61.29;95410.97;4940490;29;20097;-83
2023/07/23 05:25:47;;;;;;;28.35;14.35;;;;;;;24.70;60.28;95480.44;4924844;29;20537;-83
2023/07/23 05:28:13;;;;;;;24.23;14.25;;;;;;;24.24;60.13;95390.81;4937941;29;20051;-83
2023/07/23 05:30:40;;;;;;;23.85;14.05;;;;;;;24.86;61.28;95483.88;4939879;28;20046;-83
2023/07/23 05:33:05;;;;;;;24.60;14.00;;;;;;;24.60;60.33;95446.53;4940576;29;20134;-83
2023/07/23 05:35:31;;;;;;;25.38;13.10;;;;;;;24.69;60.86;95435.47;4937734;28;20407;-84
2023/07/23 05:37:56;;;;;;;22.42;13.85;;;;;;;23.51;60.78;95258.81;4921940;28;20051;-84
2023/07/23 05:40:22;;;;;;;21.27;13.50;;;;;;;24.46;60.31;95424.56;4945029;29;20032;-84
2023/07/23 05:42:47;;;;;;;21.38;14.02;;;;;;;24.89;60.78;95481.22;4950812;29;20066;-83
2023/07/23 05:45:13;;;;;;;23.27;12.57;;;;;;;24.80;60.71;95458.16;4947668;28;20031;-83
2023/07/23 05:47:38;;;;;;;23.88;13.95;;;;;;;24.82;61.54;95478.38;4957355;29;20051;-84
2023/07/23 05:50:04;;;;;;;24.52;15.10;;;;;;;24.33;61.90;95404.94;4941001;29;20508;-84
2023/07/23 05:52:30;;;;;;;29.10;14.68;;;;;;;24.81;61.99;95481.44;4957929;29;20458;-83
2023/07/23 05:54:55;;;;;;;21.80;15.05;;;;;;;24.76;62.55;95455.41;4940468;28;20100;-83
2023/07/23 05:57:21;;;;;;;25.20;14.63;;;;;;;24.99;61.86;95498.91;4957931;29;20363;-84
2023/07/23 05:59:46;;;;;;;22.77;13.95;;;;;;;24.44;61.97;95443.09;4958672;29;20091;-84
2023/07/23 06:02:12;;;;;;;22.83;14.00;;;;;;;24.42;61.92;95410.91;4940971;29;20035;-83
2023/07/23 06:04:39;;;;;;;19.42;12.95;;;;;;;24.92;61.84;95487.91;4938814;28;20038;-84
2023/07/23 06:07:04;;;;;;;25.58;13.30;;;;;;;24.57;62.02;95441.81;4957369;28;20117;-84
2023/07/23 06:09:30;;;;;;;22.48;13.20;;;;;;;24.79;61.90;95473.69;4956946;29;20027;-84
2023/07/23 06:11:55;;;;;;;32.35;14.13;;;;;;;24.92;61.96;95491.41;4941251;29;20055;-84
2023/07/23 06:14:21;;;;;;;25.63;13.52;;;;;;;24.80;61.97;95480.66;4957950;29;20032;-83
2023/07/23 06:16:46;;;;;;;24.85;12.82;;;;;;;24.58;60.86;95451.53;4953302;29;20042;-84
2023/07/23 06:19:12;;;;;;;20.98;12.88;;;;;;;24.16;61.05;95399.91;4997105;28;20020;-83
2023/07/23 06:21:37;;;;;;;24.83;13.88;;;;;;;24.81;61.63;95474.09;4939673;29;20027;-84
2023/07/23 06:24:03;;;;;;;19.13;12.02;;;;;;;24.52;60.06;95412.28;4967066;28;20038;-83
2023/07/23 06:26:28;;;;;;;21.80;11.65;;;;;;;24.98;59.65;95483.75;4957772;29;20050;-84
2023/07/23 06:28:54;;;;;;;21.42;11.70;;;;;;;24.92;58.67;95471.63;4957559;29;20113;-83
2023/07/23 06:31:19;;;;;;;17.30;11.52;;;;;;;24.91;59.05;95500.69;4950807;29;20039;-84
2023/07/23 06:33:44;;;;;;;22.63;11.02;;;;;;;24.68;59.27;95463.75;4953646;29;20035;-84
2023/07/23 06:36:10;;;;;;;25.17;11.68;;;;;;;24.78;60.14;95461.25;4961207;29;20078;-83
2023/07/23 06:38:35;;;;;;;25.88;12.00;;;;;;;24.41;59.37;95378.78;4945067;28;20081;-84
2023/07/23 06:41:01;;;;;;;19.88;11.05;;;;;;;24.99;57.86;95466.34;4960403;29;20122;-83
2023/07/23 06:43:27;;;;;;;19.10;10.43;;;;;;;25.10;57.90;95485.56;4960974;28;20055;-83
2023/07/23 06:45:52;;;;;;;20.63;10.23;;;;;;;25.21;56.90;95479.16;4941655;28;20050;-84
2023/07/23 06:48:19;;;;;;;16.08;9.52;;;;;;;25.23;56.25;95479.59;4961209;28;20122;-84
2023/07/23 06:50:46;;;;;;;18.92;10.55;;;;;;;25.31;55.98;95475.88;4961086;29;20032;-84
2023/07/23 06:53:12;;;;;;;22.00;10.23;;;;;;;24.88;55.40;95405.63;4961588;29;20035;-84
2023/07/23 06:55:57;;;;;;;18.05;9.80;;;;;;;25.43;55.17;95477.63;4960861;29;20036;-84
2023/07/23 06:58:23;;;;;;;17.08;10.40;;;;;;;25.09;55.01;95441.34;4944345;29;20038;-84
2023/07/23 07:00:49;;;;;;;16.10;8.13;;;;;;;25.37;53.15;95477.16;4961274;28;20413;-84
2023/07/23 07:03:14;;;;;;;20.95;9.38;;;;;;;25.35;53.46;95484.06;4971171;28;20044;-84
2023/07/23 07:05:40;;;;;;;14.35;8.50;;;;;;;24.97;53.28;95406.22;5009030;28;20576;-83
2023/07/23 07:08:05;;;;;;;14.20;9.02;;;;;;;25.56;53.64;95486.38;4962091;29;20065;-84
2023/07/23 07:10:31;;;;;;;18.77;9.93;;;;;;;25.68;54.76;95480.81;4961073;28;20148;-84
2023/07/23 07:12:56;;;;;;;16.88;9.45;;;;;;;25.44;54.51;95445.84;4967509;28;20062;-84
2023/07/23 07:15:22;;;;;;;17.65;8.95;;;;;;;25.74;53.92;95477.44;4944569;29;20031;-84
2023/07/23 07:17:47;;;;;;;21.15;9.65;;;;;;;25.52;52.98;95420.38;4943756;29;20089;-84
2023/07/23 07:20:13;;;;;;;15.02;9.57;;;;;;;26.07;52.54;95500.47;4961395;28;20573;-84
2023/07/23 07:22:38;;;;;;;15.95;9.48;;;;;;;26.04;52.74;95495.75;4941662;29;20047;-84
2023/07/23 07:25:04;;;;;;;24.60;10.65;;;;;;;25.90;52.75;95485.44;4928128;29;20027;-84
2023/07/23 07:27:30;;;;;;;17.02;8.43;;;;;;;25.61;51.92;95420.94;4961021;29;20027;-84
2023/07/23 07:29:55;;;;;;;15.63;8.27;;;;;;;26.18;51.26;95484.31;4942906;29;20085;-84
2023/07/23 07:32:20;;;;;;;18.60;7.65;;;;;;;26.11;49.59;95490.44;4959308;29;20019;-84
2023/07/23 07:34:46;;;;;;;12.80;8.07;;;;;;;25.89;49.75;95445.84;4942604;28;20058;-84
2023/07/23 07:37:11;;;;;;;13.90;7.65;;;;;;;25.72;49.42;95424.59;4942661;28;20097;-84
2023/07/23 07:39:37;;;;;;;18.13;8.10;;;;;;;25.75;48.06;95408.38;4942083;29;20032;-83
2023/07/23 07:42:03;;;;;;;10.88;7.25;;;;;;;26.28;46.74;95495.38;4958766;28;20027;-83
2023/07/23 07:44:29;;;;;;;15.57;7.43;;;;;;;25.72;46.95;95392.78;4942594;29;20582;-84
2023/07/23 07:46:54;;;;;;;21.38;7.07;;;;;;;25.88;47.63;95400.00;4960219;28;20047;-84
2023/07/23 07:49:19;;;;;;;14.60;7.80;;;;;;;26.13;48.15;95426.41;4928870;28;20066;-84
2023/07/23 07:51:47;;;;;;;17.20;6.65;;;;;;;25.82;45.61;95379.75;4938723;29;20421;-83
2023/07/23 07:54:13;;;;;;;10.70;6.80;;;;;;;26.40;44.97;95505.25;4943053;29;20039;-84
2023/07/23 07:56:39;;;;;;;15.10;7.15;;;;;;;26.28;46.74;95467.41;4943338;29;20073;-84
2023/07/23 07:59:06;;;;;;;14.90;7.43;;;;;;;26.44;46.54;95497.94;4959799;29;20039;-84
2023/07/23 08:01:32;;;;;;;15.38;6.85;;;;;;;26.31;45.38;95450.38;4956443;28;20055;-84
2023/07/23 08:03:57;;;;;;;11.18;6.40;;;;;;;26.23;45.43;95421.50;4944526;29;20040;-84
2023/07/23 08:06:24;;;;;;;12.90;7.40;;;;;;;26.17;44.89;95417.53;4942585;28;20039;-84
2023/07/23 08:08:52;;;;;;;10.30;6.88;;;;;;;25.72;44.57;95357.47;4943461;29;20042;-84
2023/07/23 08:11:18;;;;;;;9.02;6.43;;;;;;;26.61;45.22;95489.25;4942998;28;20049;-84
2023/07/23 08:13:44;;;;;;;16.48;7.95;;;;;;;26.69;45.96;95482.75;4941964;28;20053;-84
2023/07/23 08:16:13;;;;;;;13.65;7.55;;;;;;;25.83;45.74;95337.84;4974733;28;20039;-84
2023/07/23 08:18:38;;;;;;;18.35;7.60;;;;;;;26.08;45.43;95372.38;4973773;28;20066;-84
2023/07/23 08:21:05;;;;;;;11.57;7.97;;;;;;;26.67;45.57;95479.63;4959410;29;20054;-84
2023/07/23 08:23:31;;;;;;;13.60;7.53;;;;;;;26.65;45.98;95472.97;4944750;29;20051;-84
2023/07/23 08:25:58;;;;;;;12.55;7.53;;;;;;;26.44;45.01;95455.22;4940987;29;20039;-83
2023/07/23 08:28:28;;;;;;;16.75;7.30;;;;;;;26.20;45.13;95395.81;4958792;29;20145;-83
2023/07/23 08:30:57;;;;;;;18.02;7.65;;;;;;;26.68;44.33;95462.16;4942501;28;20031;-84
2023/07/23 08:33:27;;;;;;;16.58;6.90;;;;;;;26.86;43.53;95459.63;4943123;29;20050;-83
2023/07/23 08:35:53;;;;;;;11.77;7.47;;;;;;;26.55;43.20;95419.25;4961222;28;20049;-84
2023/07/23 08:38:18;;;;;;;16.35;7.50;;;;;;;26.69;43.85;95413.97;4967895;29;20050;-84
2023/07/23 08:40:45;;;;;;;15.07;7.32;;;;;;;26.96;43.85;95437.22;4946933;29;20019;-84
2023/07/23 08:43:36;;;;;;;11.63;6.57;;;;;;;27.43;43.32;95477.41;4942464;29;20505;-84
2023/07/23 08:46:05;;;;;;;12.10;6.35;;;;;;;27.26;41.56;95488.91;4959445;29;20024;-84
2023/07/23 08:48:40;;;;;;;11.73;7.18;;;;;;;27.21;41.60;95483.78;4960445;28;20038;-84
2023/07/23 08:51:07;;;;;;;13.70;7.57;;;;;;;26.95;42.06;95438.38;4944576;29;20035;-84
2023/07/23 08:53:33;;;;;;;14.00;7.18;;;;;;;27.24;42.44;95467.47;4956583;28;20031;-84
2023/07/23 08:55:58;;;;;;;14.20;6.88;;;;;;;27.33;42.02;95469.91;4941336;29;20173;-83
2023/07/23 08:58:24;;;;;;;14.15;7.70;;;;;;;26.88;41.57;95398.25;4942300;29;20027;-84
2023/07/23 09:00:49;;;;;;;13.25;7.70;;;;;;;26.83;42.05;95379.53;4941927;29;20096;-84
2023/07/23 09:03:21;;;;;;;14.68;7.82;;;;;;;26.89;41.94;95369.88;4959050;29;20454;-84
2023/07/23 09:05:46;;;;;;;16.50;6.90;;;;;;;27.13;41.37;95430.44;4968699;28;20046;-84
2023/07/23 09:08:12;;;;;;;16.65;6.88;;;;;;;27.10;40.62;95409.38;4928404;29;20035;-84
2023/07/23 09:10:38;;;;;;;14.40;6.80;;;;;;;27.48;40.45;95458.00;4958732;29;20055;-83
2023/07/23 09:13:13;;;;;;;12.35;7.03;;;;;;;27.39;39.97;95435.72;4942311;29;20043;-84
2023/07/23 09:15:39;;;;;;;12.43;6.65;;;;;;;27.40;39.41;95436.50;4942377;29;20400;-84
2023/07/23 09:18:05;;;;;;;14.40;6.85;;;;;;;27.40;39.69;95429.13;4941830;29;20108;-84
2023/07/23 09:20:30;;;;;;;18.52;7.28;;;;;;;27.31;39.05;95400.66;4941596;28;20041;-84
2023/07/23 09:23:05;;;;;;;23.73;6.90;;;;;;;27.74;38.80;95459.03;4944342;28;20058;-84
2023/07/23 09:25:31;;;;;;;15.65;7.10;;;;;;;27.30;38.58;95394.44;4932972;28;20032;-84
2023/07/23 09:27:56;;;;;;;13.65;6.47;;;;;;;27.05;38.06;95374.34;4940572;29;20039;-84
2023/07/23 09:30:23;;;;;;;12.50;6.95;;;;;;;27.72;37.76;95469.53;4941261;28;20067;-84
2023/07/23 09:32:57;;;;;;;13.98;7.03;;;;;;;27.77;37.59;95474.66;4958465;29;20061;-84
2023/07/23 09:35:30;;;;;;;17.23;6.78;;;;;;;27.58;36.71;95435.56;4943390;28;20106;-84
2023/07/23 09:37:59;;;;;;;11.35;7.35;;;;;;;27.94;36.75;95493.88;4959496;28;20126;-84
2023/07/23 09:40:38;;;;;;;18.33;6.85;;;;;;;28.02;37.37;95473.69;4942795;29;20039;-84
2023/07/23 09:43:04;;;;;;;14.25;6.57;;;;;;;27.73;37.45;95416.59;4941040;28;20040;-84
2023/07/23 09:45:31;;;;;;;13.13;6.72;;;;;;;27.94;37.68;95431.16;4941216;28;20413;-83
2023/07/23 09:47:58;;;;;;;12.10;7.50;;;;;;;28.15;37.25;95473.41;4942304;28;20204;-84
2023/07/23 09:50:26;;;;;;;15.55;6.32;;;;;;;28.24;37.12;95492.94;4959517;29;20027;-83
2023/07/23 09:52:51;;;;;;;13.43;6.78;;;;;;;28.35;36.80;95453.69;4942400;29;20050;-84
2023/07/23 09:55:19;;;;;;;13.10;7.25;;;;;;;28.68;36.15;95430.88;4959017;29;20039;-84
2023/07/23 09:57:48;;;;;;;21.52;8.07;;;;;;;29.04;34.91;95431.81;4941864;28;20502;-84
2023/07/23 10:00:14;;;;;;;15.55;7.35;;;;;;;29.67;34.24;95444.06;4942459;29;20063;-84
2023/07/23 10:02:41;;;;;;;14.35;7.07;;;;;;;30.36;33.54;95464.75;4959735;29;20105;-84
2023/07/23 10:05:07;;;;;;;11.63;6.93;;;;;;;30.78;32.30;95452.94;4942883;28;20032;-84
2023/07/23 10:07:34;;;;;;;11.25;6.50;;;;;;;30.58;32.52;95417.81;4958583;28;20030;-84
2023/07/23 10:10:00;;;;;;;10.65;6.72;;;;;;;30.90;31.93;95445.06;4949783;29;20477;-84
2023/07/23 10:12:25;;;;;;;19.55;7.40;;;;;;;30.98;31.32;95367.16;4945807;28;20059;-84
2023/07/23 10:14:51;;;;;;;10.73;6.72;;;;;;;31.60;31.60;95442.34;4944849;29;20043;-84
2023/07/23 10:17:18;;;;;;;11.38;7.07;;;;;;;31.43;30.90;95400.97;4945234;29;20096;-84
2023/07/23 10:19:46;;;;;;;12.50;8.38;;;;;;;31.70;30.59;95450.53;4976821;28;20070;-84
2023/07/23 10:22:12;;;;;;;14.95;7.70;;;;;;;32.12;30.32;95465.88;5002658;28;20039;-84
2023/07/23 10:24:38;;;;;;;14.02;8.00;;;;;;;32.05;30.01;95427.53;4944827;28;20040;-84
2023/07/23 10:27:16;;;;;;;16.48;7.70;;;;;;;32.55;30.17;95414.13;4960364;29;20035;-84
2023/07/23 10:30:27;;;;;;;17.23;7.30;;;;;;;32.99;29.50;95441.88;4962049;28;20042;-84
2023/07/23 10:33:11;;;;;;;11.98;7.70;;;;;;;33.57;28.68;95446.22;4959671;28;20056;-84
2023/07/23 10:35:51;;;;;;;13.70;7.93;;;;;;;33.08;28.42;95447.66;5010825;28;20039;-83
2023/07/23 10:38:22;;;;;;;15.15;7.43;;;;;;;33.25;28.88;95463.94;4943725;29;20089;-83
2023/07/23 10:40:48;;;;;;;;;;;;;;;33.22;28.83;95429.03;4945034;29;20046;-83
2023/07/23 10:43:14;;;;;;;17.42;7.82;;;;;;;33.55;28.56;95434.88;4944130;28;19923;-83
2023/07/23 10:46:04;;;;;;;15.85;7.70;;;;;;;33.45;27.53;95414.56;4944670;29;20039;-83
2023/07/23 10:48:39;;;;;;;13.50;7.63;;;;;;;33.51;27.39;95426.66;4946608;28;20051;-84
2023/07/23 10:51:13;;;;;;;20.35;8.23;;;;;;;33.43;27.94;95418.94;4956130;29;20152;-84
2023/07/23 10:53:53;;;;;;;15.60;8.90;;;;;;;33.14;28.34;95416.56;4934479;28;20039;-83
2023/07/23 10:56:33;;;;;;;19.20;8.32;;;;;;;33.09;28.13;95389.53;4961900;29;20043;-84
2023/07/23 10:59:03;;;;;;;15.07;7.53;;;;;;;33.38;28.02;95439.44;4961187;29;20077;-83
2023/07/23 11:01:28;;;;;;;14.40;7.63;;;;;;;33.20;27.85;95357.22;4962148;29;20039;-84
2023/07/23 11:03:59;;;;;;;19.83;8.95;;;;;;;33.42;27.50;95423.66;4942182;29;20101;-83
2023/07/23 11:06:29;;;;;;;10.32;6.95;;;;;;;33.65;27.55;95385.19;4944087;28;20043;-83
2023/07/23 11:08:56;;;;;;;15.93;8.55;;;;;;;33.83;28.25;95430.91;4943129;28;20043;-83
2023/07/23 11:11:29;;;;;;;16.23;7.40;;;;;;;33.15;27.80;95357.66;4940727;28;20119;-84
2023/07/23 11:13:55;;;;;;;19.77;8.32;;;;;;;33.13;27.08;95384.00;4942483;29;20054;-84
2023/07/23 11:16:20;;;;;;;17.85;8.60;;;;;;;33.06;26.95;95448.06;4942223;29;20043;-83
2023/07/23 11:18:47;;;;;;;20.60;8.57;;;;;;;33.15;27.39;95423.63;4940566;29;20051;-83
2023/07/23 11:21:14;;;;;;;17.02;8.82;;;;;;;32.77;28.76;95403.69;4941413;29;20035;-84